WMT1HA EDDB-LATI
Flight info
| Callsign | WMT1HA |
|---|---|
| Flight time | 1h 51m |
| Altitude | 35000 |
| Route | LUROS3A LUROS M725 HDO DCT EVIKU DCT SASAL DCT KOPRY DCT GACMO DCT PETAK |
| Aircraft | A321/M-SDE3FGHIRWY/LB1 |
Departure
| Time | 2026-05-04 11:50 |
|---|---|
| Airport | Berlin Brandenburg Airport (EDDB) |
Arrival
| Time | 2026-05-04 13:41 |
|---|---|
| Airport | Tirana International Airport Mother Teresa (LATI) |
| Time | Latitude | Longitude | Altitude | Speed | Heading |
|---|---|---|---|---|---|
| 2026-05-04 11:13 | 52.36846 | 13.50980 | 155 ft | 0 kts | 159° |
| 2026-05-04 11:38 | 52.36867 | 13.50967 | 155 ft | 4 kts | 159° |
| 2026-05-04 11:38 | 52.36892 | 13.50951 | 155 ft | 4 kts | 159° |
| 2026-05-04 11:39 | 52.36915 | 13.50936 | 155 ft | 2 kts | 159° |
| 2026-05-04 11:39 | 52.36917 | 13.50935 | 155 ft | 0 kts | 159° |
| 2026-05-04 11:44 | 52.36916 | 13.50939 | 155 ft | 2 kts | 138° |
| 2026-05-04 11:44 | 52.36925 | 13.50979 | 155 ft | 8 kts | 65° |
| 2026-05-04 11:44 | 52.36960 | 13.51118 | 155 ft | 17 kts | 69° |
| 2026-05-04 11:44 | 52.37004 | 13.51305 | 155 ft | 18 kts | 69° |
| 2026-05-04 11:45 | 52.37057 | 13.51476 | 155 ft | 16 kts | 36° |
| 2026-05-04 11:45 | 52.37148 | 13.51503 | 155 ft | 13 kts | 56° |
| 2026-05-04 11:45 | 52.37181 | 13.51641 | 155 ft | 13 kts | 69° |
| 2026-05-04 11:45 | 52.37215 | 13.51786 | 155 ft | 14 kts | 69° |
| 2026-05-04 11:46 | 52.37251 | 13.51935 | 155 ft | 14 kts | 68° |
| 2026-05-04 11:46 | 52.37288 | 13.52089 | 155 ft | 15 kts | 69° |
| 2026-05-04 11:46 | 52.37325 | 13.52249 | 155 ft | 15 kts | 69° |
| 2026-05-04 11:46 | 52.37364 | 13.52413 | 155 ft | 16 kts | 69° |
| 2026-05-04 11:47 | 52.37402 | 13.52572 | 155 ft | 12 kts | 68° |
| 2026-05-04 11:47 | 52.37429 | 13.52685 | 155 ft | 9 kts | 69° |
| 2026-05-04 11:47 | 52.37471 | 13.52753 | 155 ft | 9 kts | 6° |
| 2026-05-04 11:47 | 52.37531 | 13.52723 | 155 ft | 9 kts | 340° |
| 2026-05-04 11:48 | 52.37585 | 13.52691 | 155 ft | 0 kts | 339° |
| 2026-05-04 11:48 | 52.37599 | 13.52682 | 155 ft | 6 kts | 339° |
| 2026-05-04 11:48 | 52.37662 | 13.52641 | 155 ft | 14 kts | 338° |
| 2026-05-04 11:48 | 52.37728 | 13.52543 | 155 ft | 13 kts | 259° |
| 2026-05-04 11:49 | 52.37709 | 13.52471 | 155 ft | 11 kts | 249° |
| 2026-05-04 11:49 | 52.37599 | 13.51997 | 155 ft | 78 kts | 249° |
| 2026-05-04 11:49 | 52.37328 | 13.50847 | 155 ft | 136 kts | 249° |
| 2026-05-04 11:49 | 52.36939 | 13.49225 | 350 ft | 162 kts | 250° |
| 2026-05-04 11:50 | 52.36545 | 13.47517 | 980 ft | 161 kts | 249° |
| 2026-05-04 11:50 | 52.36144 | 13.45790 | 1460 ft | 169 kts | 250° |
| 2026-05-04 11:50 | 52.35684 | 13.43862 | 1623 ft | 193 kts | 249° |
| 2026-05-04 11:50 | 52.35191 | 13.41777 | 2049 ft | 198 kts | 249° |
| 2026-05-04 11:51 | 52.34691 | 13.39642 | 2518 ft | 204 kts | 249° |
| 2026-05-04 11:51 | 52.34175 | 13.37463 | 3025 ft | 207 kts | 249° |
| 2026-05-04 11:51 | 52.33674 | 13.35226 | 3447 ft | 215 kts | 255° |
| 2026-05-04 11:51 | 52.33467 | 13.32775 | 3817 ft | 225 kts | 264° |
| 2026-05-04 11:52 | 52.33328 | 13.30240 | 4493 ft | 220 kts | 264° |
| 2026-05-04 11:52 | 52.33201 | 13.27789 | 5233 ft | 213 kts | 264° |
| 2026-05-04 11:52 | 52.33061 | 13.25380 | 5850 ft | 213 kts | 263° |
| 2026-05-04 11:52 | 52.32902 | 13.22944 | 6378 ft | 217 kts | 264° |
| 2026-05-04 11:53 | 52.32946 | 13.20433 | 6715 ft | 233 kts | 281° |
| 2026-05-04 11:53 | 52.33714 | 13.18023 | 7101 ft | 248 kts | 312° |
| 2026-05-04 11:53 | 52.35223 | 13.16587 | 7664 ft | 260 kts | 343° |
| 2026-05-04 11:53 | 52.37035 | 13.16235 | 8311 ft | 266 kts | 359° |
| 2026-05-04 11:55 | 52.49352 | 13.25503 | 11953 ft | 320 kts | 85° |
| 2026-05-04 11:55 | 52.49240 | 13.29213 | 12117 ft | 335 kts | 102° |
| 2026-05-04 11:56 | 52.49009 | 13.33083 | 12254 ft | 356 kts | 91° |
| 2026-05-04 11:56 | 52.48947 | 13.37244 | 12377 ft | 372 kts | 102° |
| 2026-05-04 11:56 | 52.47979 | 13.41143 | 12696 ft | 373 kts | 129° |
| 2026-05-04 11:56 | 52.46105 | 13.44013 | 13192 ft | 370 kts | 149° |
| 2026-05-04 11:57 | 52.43983 | 13.46437 | 13761 ft | 374 kts | 147° |
| 2026-05-04 11:57 | 52.41907 | 13.49036 | 14283 ft | 378 kts | 145° |
| 2026-05-04 11:57 | 52.39859 | 13.51759 | 14789 ft | 381 kts | 144° |
| 2026-05-04 11:57 | 52.37818 | 13.54550 | 15350 ft | 383 kts | 143° |
| 2026-05-04 11:58 | 52.35765 | 13.57365 | 15882 ft | 386 kts | 144° |
| 2026-05-04 11:58 | 52.33714 | 13.60147 | 16399 ft | 390 kts | 144° |
| 2026-05-04 11:58 | 52.31607 | 13.62971 | 16888 ft | 393 kts | 144° |
| 2026-05-04 11:58 | 52.29475 | 13.65797 | 17391 ft | 397 kts | 145° |
| 2026-05-04 11:59 | 52.27316 | 13.68635 | 17884 ft | 400 kts | 145° |
| 2026-05-04 11:59 | 52.25134 | 13.71495 | 18352 ft | 404 kts | 145° |
| 2026-05-04 11:59 | 52.22935 | 13.74377 | 18783 ft | 407 kts | 145° |
| 2026-05-04 11:59 | 52.20720 | 13.77285 | 19253 ft | 409 kts | 145° |
| 2026-05-04 12:00 | 52.18502 | 13.80198 | 19710 ft | 411 kts | 145° |
| 2026-05-04 12:00 | 52.16295 | 13.83090 | 20169 ft | 413 kts | 145° |
| 2026-05-04 12:00 | 52.14048 | 13.86030 | 20635 ft | 415 kts | 145° |
| 2026-05-04 12:00 | 52.11788 | 13.88982 | 21073 ft | 417 kts | 145° |
| 2026-05-04 12:01 | 52.09524 | 13.91942 | 21562 ft | 418 kts | 145° |
| 2026-05-04 12:01 | 52.07256 | 13.94905 | 22012 ft | 419 kts | 145° |
| 2026-05-04 12:02 | 51.93443 | 14.12813 | 24304 ft | 430 kts | 147° |
| 2026-05-04 12:03 | 51.90933 | 14.15415 | 24600 ft | 427 kts | 157° |
| 2026-05-04 12:03 | 51.88213 | 14.17285 | 24897 ft | 424 kts | 166° |
| 2026-05-04 12:03 | 51.85358 | 14.18383 | 25203 ft | 421 kts | 175° |
| 2026-05-04 12:03 | 51.82451 | 14.18959 | 25505 ft | 422 kts | 177° |
| 2026-05-04 12:04 | 51.79524 | 14.19529 | 25817 ft | 425 kts | 176° |
| 2026-05-04 12:04 | 51.76580 | 14.20117 | 26121 ft | 427 kts | 176° |
| 2026-05-04 12:04 | 51.73667 | 14.20709 | 26420 ft | 429 kts | 176° |
| 2026-05-04 12:04 | 51.70701 | 14.21313 | 26711 ft | 431 kts | 176° |
| 2026-05-04 12:05 | 51.67719 | 14.21925 | 27016 ft | 433 kts | 176° |
| 2026-05-04 12:05 | 51.64720 | 14.22544 | 27282 ft | 435 kts | 176° |
| 2026-05-04 12:05 | 51.61710 | 14.23162 | 27538 ft | 438 kts | 176° |
| 2026-05-04 12:05 | 51.58677 | 14.23777 | 27800 ft | 440 kts | 176° |
| 2026-05-04 12:06 | 51.55628 | 14.24393 | 28073 ft | 442 kts | 176° |
| 2026-05-04 12:06 | 51.52567 | 14.25006 | 28356 ft | 444 kts | 176° |
| 2026-05-04 12:06 | 51.49493 | 14.25620 | 28640 ft | 446 kts | 176° |
| 2026-05-04 12:06 | 51.46445 | 14.26231 | 28912 ft | 449 kts | 176° |
| 2026-05-04 12:07 | 51.43341 | 14.26854 | 29191 ft | 451 kts | 176° |
| 2026-05-04 12:07 | 51.40225 | 14.27482 | 29515 ft | 451 kts | 176° |
| 2026-05-04 12:07 | 51.37112 | 14.28111 | 29871 ft | 451 kts | 177° |
| 2026-05-04 12:07 | 51.33998 | 14.28740 | 30201 ft | 451 kts | 177° |
| 2026-05-04 12:08 | 51.30888 | 14.29364 | 30531 ft | 450 kts | 177° |
| 2026-05-04 12:08 | 51.27785 | 14.29980 | 30853 ft | 449 kts | 177° |
| 2026-05-04 12:08 | 51.24690 | 14.30592 | 31196 ft | 448 kts | 177° |
| 2026-05-04 12:08 | 51.21639 | 14.31197 | 31522 ft | 447 kts | 177° |
| 2026-05-04 12:09 | 51.18554 | 14.31810 | 31857 ft | 446 kts | 177° |
| 2026-05-04 12:09 | 51.15481 | 14.32419 | 32172 ft | 445 kts | 177° |
| 2026-05-04 12:09 | 51.12407 | 14.33029 | 32479 ft | 444 kts | 177° |
| 2026-05-04 12:09 | 51.09343 | 14.33639 | 32800 ft | 444 kts | 177° |
| 2026-05-04 12:10 | 51.06277 | 14.34246 | 33088 ft | 443 kts | 177° |
| 2026-05-04 12:10 | 51.03219 | 14.34846 | 33372 ft | 443 kts | 177° |
| 2026-05-04 12:10 | 51.00165 | 14.35448 | 33678 ft | 442 kts | 177° |
| 2026-05-04 12:10 | 50.97150 | 14.36043 | 33971 ft | 442 kts | 177° |
| 2026-05-04 12:11 | 50.94104 | 14.36643 | 34232 ft | 441 kts | 177° |
| 2026-05-04 12:11 | 50.91078 | 14.37530 | 34452 ft | 444 kts | 171° |
| 2026-05-04 12:11 | 50.88074 | 14.38647 | 34692 ft | 443 kts | 171° |
| 2026-05-04 12:11 | 50.85072 | 14.39764 | 34907 ft | 443 kts | 171° |
| 2026-05-04 12:12 | 50.79068 | 14.41992 | 34983 ft | 443 kts | 171° |
| 2026-05-04 12:12 | 50.73109 | 14.44199 | 34983 ft | 443 kts | 171° |
| 2026-05-04 12:14 | 50.49085 | 14.53032 | 34993 ft | 444 kts | 171° |
| 2026-05-04 12:15 | 50.43215 | 14.55988 | 35002 ft | 450 kts | 161° |
| 2026-05-04 12:15 | 50.37431 | 14.59769 | 34999 ft | 450 kts | 161° |
| 2026-05-04 12:16 | 50.31644 | 14.63526 | 35008 ft | 451 kts | 161° |
| 2026-05-04 12:16 | 50.25845 | 14.67284 | 35018 ft | 451 kts | 161° |
| 2026-05-04 12:17 | 50.20041 | 14.71031 | 35017 ft | 451 kts | 161° |
| 2026-05-04 12:17 | 50.14273 | 14.74736 | 35019 ft | 451 kts | 161° |
| 2026-05-04 12:18 | 50.08472 | 14.78453 | 35011 ft | 451 kts | 161° |
| 2026-05-04 12:18 | 50.02660 | 14.82181 | 35007 ft | 452 kts | 161° |
| 2026-05-04 12:19 | 49.96841 | 14.85897 | 35013 ft | 453 kts | 161° |
| 2026-05-04 12:19 | 49.91051 | 14.89583 | 35002 ft | 453 kts | 161° |
| 2026-05-04 12:20 | 49.85214 | 14.93293 | 35011 ft | 453 kts | 161° |
| 2026-05-04 12:20 | 49.79374 | 14.96991 | 35016 ft | 454 kts | 161° |
| 2026-05-04 12:21 | 49.73530 | 15.00684 | 35019 ft | 454 kts | 161° |
| 2026-05-04 12:21 | 49.67687 | 15.04372 | 35017 ft | 454 kts | 161° |
| 2026-05-04 12:22 | 49.61880 | 15.08037 | 35007 ft | 454 kts | 161° |
| 2026-05-04 12:22 | 49.56019 | 15.11708 | 35012 ft | 454 kts | 161° |
| 2026-05-04 12:23 | 49.50163 | 15.15368 | 35011 ft | 454 kts | 161° |
| 2026-05-04 12:23 | 49.44337 | 15.19004 | 35020 ft | 455 kts | 161° |
| 2026-05-04 12:24 | 49.38474 | 15.22649 | 35006 ft | 455 kts | 161° |
| 2026-05-04 12:24 | 49.32608 | 15.26290 | 35011 ft | 455 kts | 161° |
| 2026-05-04 12:25 | 49.26735 | 15.29925 | 35011 ft | 455 kts | 161° |
| 2026-05-04 12:25 | 49.20893 | 15.33530 | 35014 ft | 456 kts | 161° |
| 2026-05-04 12:26 | 49.15017 | 15.37147 | 35008 ft | 456 kts | 161° |
| 2026-05-04 12:26 | 49.09129 | 15.40753 | 35018 ft | 456 kts | 161° |
| 2026-05-04 12:27 | 49.03238 | 15.44360 | 35018 ft | 456 kts | 161° |
| 2026-05-04 12:27 | 48.97349 | 15.47977 | 35018 ft | 456 kts | 161° |
| 2026-05-04 12:28 | 48.91498 | 15.51558 | 35003 ft | 456 kts | 161° |
| 2026-05-04 12:28 | 48.85601 | 15.55139 | 35004 ft | 457 kts | 160° |
| 2026-05-04 12:29 | 48.79700 | 15.58713 | 35005 ft | 457 kts | 161° |
| 2026-05-04 12:29 | 48.73831 | 15.62256 | 35006 ft | 457 kts | 161° |
| 2026-05-04 12:30 | 48.67922 | 15.65822 | 35006 ft | 457 kts | 161° |
| 2026-05-04 12:30 | 48.62018 | 15.69381 | 34999 ft | 457 kts | 160° |
| 2026-05-04 12:31 | 48.56101 | 15.72931 | 34996 ft | 457 kts | 161° |
| 2026-05-04 12:31 | 48.50221 | 15.76445 | 34995 ft | 457 kts | 160° |
| 2026-05-04 12:32 | 48.41345 | 15.81742 | 34987 ft | 458 kts | 160° |
| 2026-05-04 12:33 | 48.35424 | 15.85263 | 34985 ft | 458 kts | 160° |
| 2026-05-04 12:33 | 48.29491 | 15.88794 | 34981 ft | 458 kts | 160° |
| 2026-05-04 12:34 | 48.23595 | 15.92291 | 34988 ft | 459 kts | 160° |
| 2026-05-04 12:34 | 48.17658 | 15.95796 | 34980 ft | 459 kts | 160° |
| 2026-05-04 12:35 | 48.11707 | 15.99295 | 34990 ft | 459 kts | 160° |
| 2026-05-04 12:35 | 48.05754 | 16.02786 | 34997 ft | 459 kts | 160° |
| 2026-05-04 12:36 | 47.99842 | 16.06252 | 35002 ft | 460 kts | 160° |
| 2026-05-04 12:36 | 47.93887 | 16.09734 | 35006 ft | 460 kts | 160° |
| 2026-05-04 12:37 | 47.87926 | 16.13213 | 34999 ft | 460 kts | 160° |
| 2026-05-04 12:37 | 47.81956 | 16.16693 | 34998 ft | 461 kts | 161° |
| 2026-05-04 12:38 | 47.76018 | 16.20148 | 35008 ft | 462 kts | 161° |
| 2026-05-04 12:38 | 47.70027 | 16.23620 | 35002 ft | 463 kts | 161° |
| 2026-05-04 12:39 | 47.64014 | 16.27084 | 35016 ft | 463 kts | 160° |
| 2026-05-04 12:39 | 47.58009 | 16.30541 | 35031 ft | 463 kts | 160° |
| 2026-05-04 12:40 | 47.52041 | 16.33971 | 35029 ft | 463 kts | 161° |
| 2026-05-04 12:40 | 47.46027 | 16.37417 | 35035 ft | 463 kts | 160° |
| 2026-05-04 12:41 | 47.40031 | 16.40855 | 35044 ft | 462 kts | 160° |
| 2026-05-04 12:41 | 47.34039 | 16.44285 | 35048 ft | 462 kts | 161° |
| 2026-05-04 12:42 | 47.28083 | 16.47656 | 35046 ft | 461 kts | 161° |
| 2026-05-04 12:42 | 47.22020 | 16.50724 | 35035 ft | 461 kts | 164° |
| 2026-05-04 12:43 | 47.15893 | 16.53510 | 35040 ft | 460 kts | 165° |
| 2026-05-04 12:43 | 47.09781 | 16.56296 | 35044 ft | 460 kts | 164° |
| 2026-05-04 12:44 | 47.03680 | 16.59174 | 35044 ft | 460 kts | 163° |
| 2026-05-04 12:44 | 46.97626 | 16.62067 | 35046 ft | 461 kts | 163° |
| 2026-05-04 12:45 | 46.91526 | 16.64957 | 35045 ft | 461 kts | 163° |
| 2026-05-04 12:45 | 46.85413 | 16.67832 | 35049 ft | 462 kts | 163° |
| 2026-05-04 12:46 | 46.79289 | 16.70688 | 35057 ft | 462 kts | 163° |
| 2026-05-04 12:46 | 46.73209 | 16.73518 | 35051 ft | 462 kts | 163° |
| 2026-05-04 12:47 | 46.67082 | 16.76373 | 35059 ft | 463 kts | 163° |
| 2026-05-04 12:47 | 46.60948 | 16.79245 | 35063 ft | 463 kts | 163° |
| 2026-05-04 12:48 | 46.54811 | 16.82095 | 35057 ft | 464 kts | 163° |
| 2026-05-04 12:48 | 46.48691 | 16.84925 | 35056 ft | 465 kts | 163° |
| 2026-05-04 12:49 | 46.42533 | 16.87780 | 35070 ft | 465 kts | 163° |
| 2026-05-04 12:49 | 46.36361 | 16.90620 | 35069 ft | 466 kts | 163° |
| 2026-05-04 12:50 | 46.30182 | 16.93456 | 35062 ft | 466 kts | 163° |
| 2026-05-04 12:50 | 46.24005 | 16.96292 | 35067 ft | 466 kts | 163° |
| 2026-05-04 12:51 | 46.17922 | 16.99388 | 35086 ft | 467 kts | 160° |
| 2026-05-04 12:51 | 46.11870 | 17.02801 | 35087 ft | 467 kts | 159° |
| 2026-05-04 12:52 | 46.05812 | 17.06210 | 35084 ft | 468 kts | 159° |
| 2026-05-04 12:52 | 45.99719 | 17.09522 | 35089 ft | 468 kts | 160° |
| 2026-05-04 12:53 | 45.93649 | 17.12760 | 35090 ft | 468 kts | 160° |
| 2026-05-04 12:53 | 45.87544 | 17.16031 | 35091 ft | 468 kts | 160° |
| 2026-05-04 12:54 | 45.81445 | 17.19312 | 35094 ft | 468 kts | 160° |
| 2026-05-04 12:54 | 45.75342 | 17.22594 | 35101 ft | 468 kts | 160° |
| 2026-05-04 12:55 | 45.69239 | 17.25870 | 35108 ft | 468 kts | 160° |
| 2026-05-04 12:55 | 45.63177 | 17.29099 | 35101 ft | 468 kts | 160° |
| 2026-05-04 12:56 | 45.57073 | 17.32342 | 35096 ft | 468 kts | 160° |
| 2026-05-04 12:56 | 45.50965 | 17.35579 | 35093 ft | 468 kts | 160° |
| 2026-05-04 12:57 | 45.44857 | 17.38816 | 35111 ft | 469 kts | 160° |
| 2026-05-04 12:57 | 45.38786 | 17.42035 | 35111 ft | 469 kts | 160° |
| 2026-05-04 12:58 | 45.32676 | 17.45260 | 35106 ft | 468 kts | 160° |
| 2026-05-04 12:58 | 45.26565 | 17.48469 | 35110 ft | 468 kts | 160° |
| 2026-05-04 12:59 | 45.20461 | 17.51668 | 35108 ft | 468 kts | 160° |
| 2026-05-04 12:59 | 45.14390 | 17.54840 | 35109 ft | 468 kts | 160° |
| 2026-05-04 13:00 | 45.08280 | 17.58031 | 35105 ft | 468 kts | 160° |
| 2026-05-04 13:00 | 45.02167 | 17.61225 | 35106 ft | 469 kts | 160° |
| 2026-05-04 13:01 | 44.96049 | 17.64421 | 35090 ft | 469 kts | 160° |
| 2026-05-04 13:01 | 44.89919 | 17.67607 | 35101 ft | 469 kts | 160° |
| 2026-05-04 13:02 | 44.83831 | 17.70753 | 35096 ft | 470 kts | 160° |
| 2026-05-04 13:02 | 44.77694 | 17.73920 | 35111 ft | 470 kts | 160° |
| 2026-05-04 13:03 | 44.71555 | 17.77082 | 35103 ft | 470 kts | 160° |
| 2026-05-04 13:03 | 44.65451 | 17.80222 | 35101 ft | 470 kts | 160° |
| 2026-05-04 13:04 | 44.59301 | 17.83383 | 35107 ft | 471 kts | 160° |
| 2026-05-04 13:04 | 44.53150 | 17.86526 | 35104 ft | 471 kts | 160° |
| 2026-05-04 13:05 | 44.46983 | 17.89670 | 35106 ft | 471 kts | 160° |
| 2026-05-04 13:05 | 44.41866 | 17.92287 | 35111 ft | 472 kts | 160° |
| 2026-05-04 13:06 | 44.34696 | 17.95938 | 35115 ft | 472 kts | 160° |
| 2026-05-04 13:06 | 44.28518 | 17.99072 | 35109 ft | 473 kts | 160° |
| 2026-05-04 13:07 | 44.23376 | 18.01678 | 35106 ft | 473 kts | 160° |
| 2026-05-04 13:07 | 44.17188 | 18.04799 | 35110 ft | 473 kts | 160° |
| 2026-05-04 13:08 | 44.09987 | 18.08424 | 35122 ft | 474 kts | 160° |
| 2026-05-04 13:08 | 44.04837 | 18.11023 | 35109 ft | 474 kts | 160° |
| 2026-05-04 13:09 | 43.98635 | 18.14145 | 35108 ft | 475 kts | 160° |
| 2026-05-04 13:09 | 43.92418 | 18.17254 | 35101 ft | 475 kts | 160° |
| 2026-05-04 13:10 | 43.85184 | 18.20869 | 35096 ft | 476 kts | 161° |
| 2026-05-04 13:10 | 43.79970 | 18.23472 | 35099 ft | 476 kts | 161° |
| 2026-05-04 13:11 | 43.73771 | 18.26556 | 35100 ft | 476 kts | 161° |
| 2026-05-04 13:11 | 43.67532 | 18.29653 | 35106 ft | 477 kts | 161° |
| 2026-05-04 13:12 | 43.61284 | 18.32748 | 35109 ft | 477 kts | 161° |
| 2026-05-04 13:12 | 43.55030 | 18.35844 | 35126 ft | 478 kts | 161° |
| 2026-05-04 13:13 | 43.48808 | 18.38907 | 35118 ft | 478 kts | 161° |
| 2026-05-04 13:13 | 43.42534 | 18.41985 | 35119 ft | 479 kts | 161° |
| 2026-05-04 13:14 | 43.36249 | 18.45080 | 35143 ft | 480 kts | 161° |
| 2026-05-04 13:14 | 43.29957 | 18.48168 | 35133 ft | 480 kts | 161° |
| 2026-05-04 13:15 | 43.23700 | 18.51227 | 35131 ft | 481 kts | 161° |
| 2026-05-04 13:15 | 43.17395 | 18.54302 | 35142 ft | 481 kts | 161° |
| 2026-05-04 13:16 | 43.11099 | 18.57442 | 35130 ft | 482 kts | 159° |
| 2026-05-04 13:16 | 43.04902 | 18.60934 | 35129 ft | 482 kts | 157° |
| 2026-05-04 13:17 | 42.98733 | 18.64561 | 35128 ft | 483 kts | 157° |
| 2026-05-04 13:17 | 42.92526 | 18.68113 | 35130 ft | 484 kts | 158° |
| 2026-05-04 13:18 | 42.86338 | 18.71575 | 35123 ft | 484 kts | 158° |
| 2026-05-04 13:18 | 42.80103 | 18.75039 | 35127 ft | 485 kts | 158° |
| 2026-05-04 13:19 | 42.73852 | 18.78518 | 35149 ft | 486 kts | 158° |
| 2026-05-04 13:19 | 42.67640 | 18.81988 | 35045 ft | 486 kts | 158° |
| 2026-05-04 13:19 | 42.64487 | 18.83748 | 34169 ft | 494 kts | 158° |
| 2026-05-04 13:20 | 42.61297 | 18.85525 | 33318 ft | 497 kts | 158° |
| 2026-05-04 13:20 | 42.58091 | 18.87306 | 32497 ft | 500 kts | 158° |
| 2026-05-04 13:20 | 42.54866 | 18.89094 | 31724 ft | 502 kts | 158° |
| 2026-05-04 13:20 | 42.51642 | 18.90880 | 31179 ft | 498 kts | 158° |
| 2026-05-04 13:21 | 42.48439 | 18.92650 | 30599 ft | 497 kts | 158° |
| 2026-05-04 13:21 | 42.45248 | 18.94412 | 29996 ft | 495 kts | 158° |
| 2026-05-04 13:21 | 42.42066 | 18.96169 | 29390 ft | 491 kts | 158° |
| 2026-05-04 13:21 | 42.38920 | 18.97905 | 28825 ft | 487 kts | 158° |
| 2026-05-04 13:22 | 42.35836 | 18.99607 | 28252 ft | 482 kts | 158° |
| 2026-05-04 13:22 | 42.32739 | 19.01311 | 27691 ft | 478 kts | 158° |
| 2026-05-04 13:22 | 42.29674 | 19.02995 | 27124 ft | 474 kts | 157° |
| 2026-05-04 13:22 | 42.26629 | 19.04663 | 26581 ft | 470 kts | 157° |
| 2026-05-04 13:23 | 42.23617 | 19.06316 | 26104 ft | 465 kts | 157° |
| 2026-05-04 13:23 | 42.20625 | 19.07958 | 25519 ft | 462 kts | 157° |
| 2026-05-04 13:23 | 42.17662 | 19.09580 | 25051 ft | 457 kts | 157° |
| 2026-05-04 13:23 | 42.14761 | 19.11169 | 24549 ft | 454 kts | 157° |
| 2026-05-04 13:24 | 42.11859 | 19.12756 | 24053 ft | 450 kts | 156° |
| 2026-05-04 13:24 | 42.08962 | 19.14339 | 23523 ft | 447 kts | 156° |
| 2026-05-04 13:24 | 42.06094 | 19.15902 | 23027 ft | 442 kts | 156° |
| 2026-05-04 13:25 | 42.00452 | 19.18962 | 22075 ft | 433 kts | 156° |
| 2026-05-04 13:25 | 41.97664 | 19.20473 | 21599 ft | 430 kts | 156° |
| 2026-05-04 13:25 | 41.94895 | 19.21974 | 21114 ft | 429 kts | 156° |
| 2026-05-04 13:25 | 41.92132 | 19.23474 | 20617 ft | 427 kts | 156° |
| 2026-05-04 13:26 | 41.89427 | 19.24944 | 20112 ft | 425 kts | 156° |
| 2026-05-04 13:26 | 41.86692 | 19.26431 | 19699 ft | 421 kts | 156° |
| 2026-05-04 13:26 | 41.83977 | 19.27905 | 19202 ft | 419 kts | 156° |
| 2026-05-04 13:26 | 41.81284 | 19.29362 | 18628 ft | 416 kts | 156° |
| 2026-05-04 13:27 | 41.78723 | 19.31044 | 18064 ft | 403 kts | 145° |
| 2026-05-04 13:27 | 41.76532 | 19.33246 | 17629 ft | 386 kts | 134° |
| 2026-05-04 13:27 | 41.74724 | 19.35849 | 17193 ft | 379 kts | 126° |
| 2026-05-04 13:27 | 41.73048 | 19.38550 | 16740 ft | 375 kts | 126° |
| 2026-05-04 13:28 | 41.71381 | 19.41219 | 16301 ft | 372 kts | 126° |
| 2026-05-04 13:28 | 41.69751 | 19.43816 | 15870 ft | 368 kts | 126° |
| 2026-05-04 13:28 | 41.68111 | 19.46423 | 15451 ft | 365 kts | 126° |
| 2026-05-04 13:28 | 41.66481 | 19.49008 | 15005 ft | 362 kts | 127° |
| 2026-05-04 13:29 | 41.64644 | 19.51307 | 14576 ft | 364 kts | 141° |
| 2026-05-04 13:29 | 41.62450 | 19.52995 | 14083 ft | 366 kts | 155° |
| 2026-05-04 13:29 | 41.59988 | 19.53956 | 13487 ft | 370 kts | 170° |
| 2026-05-04 13:29 | 41.57439 | 19.54302 | 13025 ft | 367 kts | 174° |
| 2026-05-04 13:30 | 41.54909 | 19.54627 | 12573 ft | 364 kts | 173° |
| 2026-05-04 13:30 | 41.52429 | 19.54961 | 12114 ft | 361 kts | 173° |
| 2026-05-04 13:30 | 41.49939 | 19.55305 | 11659 ft | 358 kts | 173° |
| 2026-05-04 13:30 | 41.47468 | 19.55650 | 11199 ft | 356 kts | 173° |
| 2026-05-04 13:31 | 41.45011 | 19.55991 | 10749 ft | 354 kts | 173° |
| 2026-05-04 13:31 | 41.42574 | 19.56325 | 10327 ft | 350 kts | 173° |
| 2026-05-04 13:31 | 41.40191 | 19.56649 | 10200 ft | 338 kts | 173° |
| 2026-05-04 13:31 | 41.37895 | 19.56960 | 10080 ft | 325 kts | 173° |
| 2026-05-04 13:32 | 41.35684 | 19.57258 | 9944 ft | 314 kts | 173° |
| 2026-05-04 13:32 | 41.33531 | 19.57551 | 9471 ft | 316 kts | 173° |
| 2026-05-04 13:32 | 41.31345 | 19.57850 | 9060 ft | 315 kts | 173° |
| 2026-05-04 13:32 | 41.29193 | 19.58143 | 8652 ft | 307 kts | 173° |
| 2026-05-04 13:33 | 41.27099 | 19.58428 | 8269 ft | 299 kts | 173° |
| 2026-05-04 13:33 | 41.25054 | 19.58702 | 7889 ft | 292 kts | 173° |
| 2026-05-04 13:33 | 41.23060 | 19.58970 | 7511 ft | 284 kts | 173° |
| 2026-05-04 13:33 | 41.21116 | 19.59262 | 7154 ft | 277 kts | 166° |
| 2026-05-04 13:34 | 41.19395 | 19.60236 | 6808 ft | 265 kts | 140° |
| 2026-05-04 13:34 | 41.18211 | 19.61962 | 6496 ft | 251 kts | 117° |
| 2026-05-04 13:34 | 41.17655 | 19.64091 | 6088 ft | 240 kts | 94° |
| 2026-05-04 13:34 | 41.17717 | 19.66243 | 5745 ft | 229 kts | 82° |
| 2026-05-04 13:35 | 41.17885 | 19.68323 | 5443 ft | 224 kts | 82° |
| 2026-05-04 13:35 | 41.18271 | 19.72170 | 4813 ft | 197 kts | 69° |
| 2026-05-04 13:35 | 41.19000 | 19.73644 | 4534 ft | 189 kts | 43° |
| 2026-05-04 13:36 | 41.20095 | 19.74533 | 4274 ft | 183 kts | 20° |
| 2026-05-04 13:36 | 41.21360 | 19.74735 | 4020 ft | 187 kts | 356° |
| 2026-05-04 13:36 | 41.22649 | 19.74552 | 3774 ft | 187 kts | 354° |
| 2026-05-04 13:36 | 41.23925 | 19.74376 | 3511 ft | 187 kts | 355° |
| 2026-05-04 13:37 | 41.25219 | 19.74203 | 3246 ft | 186 kts | 355° |
| 2026-05-04 13:37 | 41.26478 | 19.74035 | 3013 ft | 178 kts | 355° |
| 2026-05-04 13:37 | 41.27685 | 19.73877 | 2806 ft | 172 kts | 354° |
| 2026-05-04 13:37 | 41.28871 | 19.73722 | 2587 ft | 170 kts | 354° |
| 2026-05-04 13:38 | 41.30025 | 19.73571 | 2383 ft | 164 kts | 354° |
| 2026-05-04 13:38 | 41.31144 | 19.73424 | 2185 ft | 156 kts | 353° |
| 2026-05-04 13:38 | 41.32183 | 19.73286 | 1994 ft | 149 kts | 352° |
| 2026-05-04 13:38 | 41.33222 | 19.73145 | 1773 ft | 152 kts | 351° |
| 2026-05-04 13:39 | 41.34264 | 19.73007 | 1506 ft | 148 kts | 351° |
| 2026-05-04 13:39 | 41.35278 | 19.72875 | 1251 ft | 146 kts | 351° |
| 2026-05-04 13:39 | 41.36297 | 19.72732 | 1020 ft | 149 kts | 351° |
| 2026-05-04 13:39 | 41.37333 | 19.72590 | 811 ft | 149 kts | 351° |
| 2026-05-04 13:40 | 41.38375 | 19.72462 | 578 ft | 152 kts | 353° |
| 2026-05-04 13:40 | 41.39421 | 19.72335 | 364 ft | 151 kts | 350° |
| 2026-05-04 13:40 | 41.40443 | 19.72194 | 147 ft | 145 kts | 349° |
| 2026-05-04 13:40 | 41.41262 | 19.72090 | 128 ft | 79 kts | 356° |
| 2026-05-04 13:41 | 41.41649 | 19.72033 | 126 ft | 48 kts | 352° |
| 2026-05-04 13:41 | 41.41820 | 19.72009 | 123 ft | 18 kts | 354° |
| 2026-05-04 13:41 | 41.41874 | 19.71917 | 121 ft | 14 kts | 255° |
| 2026-05-04 13:42 | 41.41857 | 19.71660 | 121 ft | 11 kts | 263° |
| 2026-05-04 13:42 | 41.41867 | 19.71610 | 120 ft | 5 kts | 311° |
| 2026-05-04 13:42 | 41.41874 | 19.71563 | 121 ft | 6 kts | 261° |
| 2026-05-04 13:42 | 41.41872 | 19.71541 | 122 ft | 0 kts | 262° |